sensor_id;sensor_type;location;lat;lon;timestamp;temperature;humidity
71396;DHT22;59888;55.814;37.132;2024-03-25T00:00:16;4.74;69.71
71396;DHT22;59888;55.814;37.132;2024-03-25T00:02:42;4.65;69.61
71396;DHT22;59888;55.814;37.132;2024-03-25T00:05:08;4.60;69.77
71396;DHT22;59888;55.814;37.132;2024-03-25T00:07:40;4.56;69.73
71396;DHT22;59888;55.814;37.132;2024-03-25T00:10:07;4.57;69.65
71396;DHT22;59888;55.814;37.132;2024-03-25T00:12:35;4.50;69.67
71396;DHT22;59888;55.814;37.132;2024-03-25T00:15:02;4.49;69.84
71396;DHT22;59888;55.814;37.132;2024-03-25T00:17:32;4.50;69.57
71396;DHT22;59888;55.814;37.132;2024-03-25T00:19:58;4.47;69.75
71396;DHT22;59888;55.814;37.132;2024-03-25T00:22:24;4.46;69.58
71396;DHT22;59888;55.814;37.132;2024-03-25T00:24:52;4.46;69.65
71396;DHT22;59888;55.814;37.132;2024-03-25T00:27:18;4.42;69.61
71396;DHT22;59888;55.814;37.132;2024-03-25T00:29:45;4.36;69.81
71396;DHT22;59888;55.814;37.132;2024-03-25T00:32:11;4.35;69.90
71396;DHT22;59888;55.814;37.132;2024-03-25T00:34:37;4.31;70.06
71396;DHT22;59888;55.814;37.132;2024-03-25T00:37:04;4.27;70.41
71396;DHT22;59888;55.814;37.132;2024-03-25T00:39:30;4.22;70.80
71396;DHT22;59888;55.814;37.132;2024-03-25T00:41:58;4.18;70.97
71396;DHT22;59888;55.814;37.132;2024-03-25T00:44:24;4.12;70.61
71396;DHT22;59888;55.814;37.132;2024-03-25T00:46:51;4.07;70.58
71396;DHT22;59888;55.814;37.132;2024-03-25T00:49:17;4.07;70.60
71396;DHT22;59888;55.814;37.132;2024-03-25T00:51:43;4.03;71.16
71396;DHT22;59888;55.814;37.132;2024-03-25T00:54:09;4.00;71.24
71396;DHT22;59888;55.814;37.132;2024-03-25T00:56:36;4.01;71.33
71396;DHT22;59888;55.814;37.132;2024-03-25T00:59:02;4.00;71.16
71396;DHT22;59888;55.814;37.132;2024-03-25T01:01:30;4.00;71.01
71396;DHT22;59888;55.814;37.132;2024-03-25T01:03:56;3.98;71.99
71396;DHT22;59888;55.814;37.132;2024-03-25T01:06:22;3.93;72.25
71396;DHT22;59888;55.814;37.132;2024-03-25T01:08:49;3.91;71.93
71396;DHT22;59888;55.814;37.132;2024-03-25T01:11:15;3.87;72.03
71396;DHT22;59888;55.814;37.132;2024-03-25T01:13:41;3.84;72.20
71396;DHT22;59888;55.814;37.132;2024-03-25T01:16:08;3.84;72.66
71396;DHT22;59888;55.814;37.132;2024-03-25T01:18:34;3.87;72.11
71396;DHT22;59888;55.814;37.132;2024-03-25T01:21:00;3.91;71.75
71396;DHT22;59888;55.814;37.132;2024-03-25T01:23:27;3.86;72.28
71396;DHT22;59888;55.814;37.132;2024-03-25T01:25:53;3.89;71.96
71396;DHT22;59888;55.814;37.132;2024-03-25T01:28:19;3.91;71.33
71396;DHT22;59888;55.814;37.132;2024-03-25T01:30:46;3.90;71.22
71396;DHT22;59888;55.814;37.132;2024-03-25T01:33:11;3.83;71.36
71396;DHT22;59888;55.814;37.132;2024-03-25T01:35:37;3.87;71.19
71396;DHT22;59888;55.814;37.132;2024-03-25T01:38:04;3.89;71.13
71396;DHT22;59888;55.814;37.132;2024-03-25T01:40:30;3.89;71.15
71396;DHT22;59888;55.814;37.132;2024-03-25T01:42:57;3.84;70.92
71396;DHT22;59888;55.814;37.132;2024-03-25T01:45:30;3.82;71.13
71396;DHT22;59888;55.814;37.132;2024-03-25T01:47:57;3.80;71.11
71396;DHT22;59888;55.814;37.132;2024-03-25T01:50:25;3.83;71.13
71396;DHT22;59888;55.814;37.132;2024-03-25T01:52:53;3.79;71.07
71396;DHT22;59888;55.814;37.132;2024-03-25T01:55:21;3.84;70.89
71396;DHT22;59888;55.814;37.132;2024-03-25T01:57:49;3.85;70.98
71396;DHT22;59888;55.814;37.132;2024-03-25T02:00:33;3.86;70.99
71396;DHT22;59888;55.814;37.132;2024-03-25T02:03:01;3.77;71.12
71396;DHT22;59888;55.814;37.132;2024-03-25T02:05:27;3.74;71.35
71396;DHT22;59888;55.814;37.132;2024-03-25T02:07:53;3.75;71.21
71396;DHT22;59888;55.814;37.132;2024-03-25T02:10:21;3.79;71.01
71396;DHT22;59888;55.814;37.132;2024-03-25T02:12:49;3.86;70.67
71396;DHT22;59888;55.814;37.132;2024-03-25T02:15:17;3.89;70.75
71396;DHT22;59888;55.814;37.132;2024-03-25T02:17:45;3.89;70.54
71396;DHT22;59888;55.814;37.132;2024-03-25T02:20:11;3.83;70.91
71396;DHT22;59888;55.814;37.132;2024-03-25T02:22:41;3.82;70.77
71396;DHT22;59888;55.814;37.132;2024-03-25T02:25:09;3.84;70.81
71396;DHT22;59888;55.814;37.132;2024-03-25T02:27:37;3.89;70.49
71396;DHT22;59888;55.814;37.132;2024-03-25T02:30:09;3.91;70.64
71396;DHT22;59888;55.814;37.132;2024-03-25T02:32:39;3.98;70.26
71396;DHT22;59888;55.814;37.132;2024-03-25T02:35:07;3.99;70.28
71396;DHT22;59888;55.814;37.132;2024-03-25T02:37:34;4.03;70.26
71396;DHT22;59888;55.814;37.132;2024-03-25T02:40:02;4.07;70.16
71396;DHT22;59888;55.814;37.132;2024-03-25T02:42:30;4.06;69.97
71396;DHT22;59888;55.814;37.132;2024-03-25T02:44:56;4.05;69.82
71396;DHT22;59888;55.814;37.132;2024-03-25T02:47:24;4.05;69.87
71396;DHT22;59888;55.814;37.132;2024-03-25T02:49:50;4.05;69.84
71396;DHT22;59888;55.814;37.132;2024-03-25T02:52:18;4.08;69.78
71396;DHT22;59888;55.814;37.132;2024-03-25T02:54:44;4.08;69.75
71396;DHT22;59888;55.814;37.132;2024-03-25T02:57:10;4.09;69.65
71396;DHT22;59888;55.814;37.132;2024-03-25T02:59:37;4.10;69.61
71396;DHT22;59888;55.814;37.132;2024-03-25T03:02:03;4.06;69.55
71396;DHT22;59888;55.814;37.132;2024-03-25T03:04:29;4.08;69.71
71396;DHT22;59888;55.814;37.132;2024-03-25T03:06:56;4.08;69.56
71396;DHT22;59888;55.814;37.132;2024-03-25T03:09:22;4.09;69.62
71396;DHT22;59888;55.814;37.132;2024-03-25T03:11:48;4.09;69.55
71396;DHT22;59888;55.814;37.132;2024-03-25T03:14:14;4.09;69.56
71396;DHT22;59888;55.814;37.132;2024-03-25T03:16:41;4.12;69.50
71396;DHT22;59888;55.814;37.132;2024-03-25T03:19:07;4.10;69.56
71396;DHT22;59888;55.814;37.132;2024-03-25T03:21:35;4.14;69.26
71396;DHT22;59888;55.814;37.132;2024-03-25T03:24:03;4.08;69.22
71396;DHT22;59888;55.814;37.132;2024-03-25T03:26:29;4.04;69.29
71396;DHT22;59888;55.814;37.132;2024-03-25T03:28:56;4.03;69.19
71396;DHT22;59888;55.814;37.132;2024-03-25T03:31:25;3.97;69.32
71396;DHT22;59888;55.814;37.132;2024-03-25T03:33:52;4.03;69.23
71396;DHT22;59888;55.814;37.132;2024-03-25T03:36:21;4.00;69.29
71396;DHT22;59888;55.814;37.132;2024-03-25T03:38:51;3.99;69.21
71396;DHT22;59888;55.814;37.132;2024-03-25T03:41:17;4.00;69.30
71396;DHT22;59888;55.814;37.132;2024-03-25T03:43:44;4.01;69.42
71396;DHT22;59888;55.814;37.132;2024-03-25T03:46:11;3.98;69.26
71396;DHT22;59888;55.814;37.132;2024-03-25T03:48:37;4.01;69.29
71396;DHT22;59888;55.814;37.132;2024-03-25T03:51:05;4.01;69.33
71396;DHT22;59888;55.814;37.132;2024-03-25T03:53:32;4.03;69.45
71396;DHT22;59888;55.814;37.132;2024-03-25T03:56:00;4.10;69.30
71396;DHT22;59888;55.814;37.132;2024-03-25T03:58:33;4.12;69.14
71396;DHT22;59888;55.814;37.132;2024-03-25T04:01:00;4.10;69.08
71396;DHT22;59888;55.814;37.132;2024-03-25T04:03:27;4.09;69.07
71396;DHT22;59888;55.814;37.132;2024-03-25T04:05:54;4.09;69.13
71396;DHT22;59888;55.814;37.132;2024-03-25T04:08:20;4.09;69.13
71396;DHT22;59888;55.814;37.132;2024-03-25T04:10:46;4.13;69.06
71396;DHT22;59888;55.814;37.132;2024-03-25T04:13:13;4.13;69.11
71396;DHT22;59888;55.814;37.132;2024-03-25T04:15:40;4.06;69.41
71396;DHT22;59888;55.814;37.132;2024-03-25T04:18:08;4.04;69.30
71396;DHT22;59888;55.814;37.132;2024-03-25T04:20:39;4.07;69.39
71396;DHT22;59888;55.814;37.132;2024-03-25T04:23:06;4.12;69.21
71396;DHT22;59888;55.814;37.132;2024-03-25T04:25:36;4.13;69.13
71396;DHT22;59888;55.814;37.132;2024-03-25T04:28:05;4.19;69.01
71396;DHT22;59888;55.814;37.132;2024-03-25T04:30:32;4.19;68.95
71396;DHT22;59888;55.814;37.132;2024-03-25T04:33:00;4.19;68.94
71396;DHT22;59888;55.814;37.132;2024-03-25T04:35:27;4.22;68.83
71396;DHT22;59888;55.814;37.132;2024-03-25T04:37:53;4.23;68.67
71396;DHT22;59888;55.814;37.132;2024-03-25T04:40:22;4.23;68.75
71396;DHT22;59888;55.814;37.132;2024-03-25T04:42:48;4.23;68.80
71396;DHT22;59888;55.814;37.132;2024-03-25T04:45:14;4.23;68.86
71396;DHT22;59888;55.814;37.132;2024-03-25T04:47:41;4.32;68.68
71396;DHT22;59888;55.814;37.132;2024-03-25T04:50:07;4.38;68.69
71396;DHT22;59888;55.814;37.132;2024-03-25T04:52:33;4.39;68.58
71396;DHT22;59888;55.814;37.132;2024-03-25T04:55:00;4.39;68.55
71396;DHT22;59888;55.814;37.132;2024-03-25T04:57:26;4.34;68.45
71396;DHT22;59888;55.814;37.132;2024-03-25T04:59:52;4.35;68.32
71396;DHT22;59888;55.814;37.132;2024-03-25T05:02:20;4.37;68.42
71396;DHT22;59888;55.814;37.132;2024-03-25T05:04:46;4.43;68.38
71396;DHT22;59888;55.814;37.132;2024-03-25T05:07:12;4.50;68.27
71396;DHT22;59888;55.814;37.132;2024-03-25T05:09:39;4.56;68.10
71396;DHT22;59888;55.814;37.132;2024-03-25T05:12:06;4.60;68.00
71396;DHT22;59888;55.814;37.132;2024-03-25T05:14:32;4.60;67.65
71396;DHT22;59888;55.814;37.132;2024-03-25T05:16:58;4.66;67.77
71396;DHT22;59888;55.814;37.132;2024-03-25T05:19:24;4.77;67.58
71396;DHT22;59888;55.814;37.132;2024-03-25T05:21:50;4.80;67.35
71396;DHT22;59888;55.814;37.132;2024-03-25T05:24:16;4.79;67.10
71396;DHT22;59888;55.814;37.132;2024-03-25T05:26:42;4.87;67.20
71396;DHT22;59888;55.814;37.132;2024-03-25T05:29:08;4.88;67.00
71396;DHT22;59888;55.814;37.132;2024-03-25T05:31:36;4.94;66.85
71396;DHT22;59888;55.814;37.132;2024-03-25T05:34:02;5.00;66.56
71396;DHT22;59888;55.814;37.132;2024-03-25T05:36:34;5.09;66.42
71396;DHT22;59888;55.814;37.132;2024-03-25T05:39:01;5.18;66.14
71396;DHT22;59888;55.814;37.132;2024-03-25T05:41:27;5.24;65.74
71396;DHT22;59888;55.814;37.132;2024-03-25T05:43:53;5.27;65.66
71396;DHT22;59888;55.814;37.132;2024-03-25T05:46:19;5.35;65.79
71396;DHT22;59888;55.814;37.132;2024-03-25T05:48:45;5.37;65.37
71396;DHT22;59888;55.814;37.132;2024-03-25T05:51:11;5.45;65.23
71396;DHT22;59888;55.814;37.132;2024-03-25T05:53:38;5.59;64.96
71396;DHT22;59888;55.814;37.132;2024-03-25T05:56:04;5.76;65.01
71396;DHT22;59888;55.814;37.132;2024-03-25T05:58:30;5.79;62.66
71396;DHT22;59888;55.814;37.132;2024-03-25T06:00:57;5.84;63.89
71396;DHT22;59888;55.814;37.132;2024-03-25T06:03:23;5.96;63.48
71396;DHT22;59888;55.814;37.132;2024-03-25T06:05:49;5.95;61.83
71396;DHT22;59888;55.814;37.132;2024-03-25T06:08:16;5.94;63.11
71396;DHT22;59888;55.814;37.132;2024-03-25T06:10:46;5.97;62.36
71396;DHT22;59888;55.814;37.132;2024-03-25T06:13:12;5.97;62.01
71396;DHT22;59888;55.814;37.132;2024-03-25T06:15:39;5.99;62.38
71396;DHT22;59888;55.814;37.132;2024-03-25T06:18:05;6.01;62.73
71396;DHT22;59888;55.814;37.132;2024-03-25T06:20:31;6.06;62.60
71396;DHT22;59888;55.814;37.132;2024-03-25T06:22:58;6.10;62.81
71396;DHT22;59888;55.814;37.132;2024-03-25T06:25:23;6.05;61.79
71396;DHT22;59888;55.814;37.132;2024-03-25T06:27:49;6.11;61.96
71396;DHT22;59888;55.814;37.132;2024-03-25T06:30:16;6.15;60.59
71396;DHT22;59888;55.814;37.132;2024-03-25T06:33:00;6.06;60.09
71396;DHT22;59888;55.814;37.132;2024-03-25T06:35:45;6.13;61.53
71396;DHT22;59888;55.814;37.132;2024-03-25T06:38:11;6.19;60.87
71396;DHT22;59888;55.814;37.132;2024-03-25T06:40:37;6.20;60.60
71396;DHT22;59888;55.814;37.132;2024-03-25T06:43:05;6.09;59.60
71396;DHT22;59888;55.814;37.132;2024-03-25T06:45:31;6.00;58.74
71396;DHT22;59888;55.814;37.132;2024-03-25T06:47:58;5.98;60.08
71396;DHT22;59888;55.814;37.132;2024-03-25T06:50:26;6.19;60.63
71396;DHT22;59888;55.814;37.132;2024-03-25T06:52:53;6.24;59.23
71396;DHT22;59888;55.814;37.132;2024-03-25T06:55:19;6.26;59.62
71396;DHT22;59888;55.814;37.132;2024-03-25T06:57:49;6.38;60.09
71396;DHT22;59888;55.814;37.132;2024-03-25T07:00:15;6.42;59.15
71396;DHT22;59888;55.814;37.132;2024-03-25T07:02:41;6.44;58.65
71396;DHT22;59888;55.814;37.132;2024-03-25T07:05:08;6.48;59.32
71396;DHT22;59888;55.814;37.132;2024-03-25T07:07:34;6.54;58.49
71396;DHT22;59888;55.814;37.132;2024-03-25T07:10:01;6.56;58.21
71396;DHT22;59888;55.814;37.132;2024-03-25T07:12:32;6.51;58.93
71396;DHT22;59888;55.814;37.132;2024-03-25T07:15:00;6.43;57.63
71396;DHT22;59888;55.814;37.132;2024-03-25T07:17:26;6.42;59.11
71396;DHT22;59888;55.814;37.132;2024-03-25T07:19:53;6.57;58.77
71396;DHT22;59888;55.814;37.132;2024-03-25T07:22:19;6.46;58.49
71396;DHT22;59888;55.814;37.132;2024-03-25T07:24:45;6.49;58.66
71396;DHT22;59888;55.814;37.132;2024-03-25T07:27:12;6.51;58.99
71396;DHT22;59888;55.814;37.132;2024-03-25T07:29:39;6.63;59.09
71396;DHT22;59888;55.814;37.132;2024-03-25T07:32:06;6.58;58.28
71396;DHT22;59888;55.814;37.132;2024-03-25T07:34:32;6.64;58.80
71396;DHT22;59888;55.814;37.132;2024-03-25T07:36:58;6.70;58.94
71396;DHT22;59888;55.814;37.132;2024-03-25T07:39:24;6.80;58.24
71396;DHT22;59888;55.814;37.132;2024-03-25T07:41:50;6.75;58.70
71396;DHT22;59888;55.814;37.132;2024-03-25T07:44:16;6.80;57.75
71396;DHT22;59888;55.814;37.132;2024-03-25T07:46:42;6.75;57.91
71396;DHT22;59888;55.814;37.132;2024-03-25T07:49:08;6.69;57.87
71396;DHT22;59888;55.814;37.132;2024-03-25T07:51:34;6.63;57.58
71396;DHT22;59888;55.814;37.132;2024-03-25T07:54:05;6.57;58.03
71396;DHT22;59888;55.814;37.132;2024-03-25T07:56:31;6.63;58.17
71396;DHT22;59888;55.814;37.132;2024-03-25T07:58:58;6.71;57.10
71396;DHT22;59888;55.814;37.132;2024-03-25T08:01:25;6.91;57.35
71396;DHT22;59888;55.814;37.132;2024-03-25T08:03:52;7.07;57.85
71396;DHT22;59888;55.814;37.132;2024-03-25T08:06:18;7.09;55.90
71396;DHT22;59888;55.814;37.132;2024-03-25T08:08:47;7.08;56.62
71396;DHT22;59888;55.814;37.132;2024-03-25T08:11:13;7.17;55.87
71396;DHT22;59888;55.814;37.132;2024-03-25T08:13:39;7.18;56.00
71396;DHT22;59888;55.814;37.132;2024-03-25T08:16:05;7.24;56.74
71396;DHT22;59888;55.814;37.132;2024-03-25T08:18:33;7.22;56.29
71396;DHT22;59888;55.814;37.132;2024-03-25T08:20:59;7.23;57.23
71396;DHT22;59888;55.814;37.132;2024-03-25T08:23:25;7.23;56.02
71396;DHT22;59888;55.814;37.132;2024-03-25T08:25:52;7.12;56.56
71396;DHT22;59888;55.814;37.132;2024-03-25T08:28:18;7.15;56.34
71396;DHT22;59888;55.814;37.132;2024-03-25T08:30:44;7.22;56.22
71396;DHT22;59888;55.814;37.132;2024-03-25T08:33:10;7.48;56.13
71396;DHT22;59888;55.814;37.132;2024-03-25T08:35:37;7.48;55.81
71396;DHT22;59888;55.814;37.132;2024-03-25T08:38:05;7.43;54.67
71396;DHT22;59888;55.814;37.132;2024-03-25T08:40:31;7.28;54.47
71396;DHT22;59888;55.814;37.132;2024-03-25T08:42:57;7.28;55.42
71396;DHT22;59888;55.814;37.132;2024-03-25T08:45:23;7.40;56.03
71396;DHT22;59888;55.814;37.132;2024-03-25T08:47:50;7.47;56.24
71396;DHT22;59888;55.814;37.132;2024-03-25T08:50:16;7.48;54.52
71396;DHT22;59888;55.814;37.132;2024-03-25T08:52:42;7.34;55.17
71396;DHT22;59888;55.814;37.132;2024-03-25T08:55:09;7.35;55.76
71396;DHT22;59888;55.814;37.132;2024-03-25T08:57:35;7.41;54.99
71396;DHT22;59888;55.814;37.132;2024-03-25T09:00:02;7.44;55.41
71396;DHT22;59888;55.814;37.132;2024-03-25T09:02:31;7.42;55.12
71396;DHT22;59888;55.814;37.132;2024-03-25T09:04:58;7.49;55.98
71396;DHT22;59888;55.814;37.132;2024-03-25T09:07:25;7.61;55.26
71396;DHT22;59888;55.814;37.132;2024-03-25T09:09:51;7.72;54.38
71396;DHT22;59888;55.814;37.132;2024-03-25T09:12:37;7.71;54.53
71396;DHT22;59888;55.814;37.132;2024-03-25T09:15:05;7.73;54.84
71396;DHT22;59888;55.814;37.132;2024-03-25T09:17:32;7.71;55.26
71396;DHT22;59888;55.814;37.132;2024-03-25T09:19:58;7.72;54.52
71396;DHT22;59888;55.814;37.132;2024-03-25T09:22:24;7.67;53.79
71396;DHT22;59888;55.814;37.132;2024-03-25T09:24:50;7.67;54.96
71396;DHT22;59888;55.814;37.132;2024-03-25T09:27:17;7.81;55.21
71396;DHT22;59888;55.814;37.132;2024-03-25T09:29:43;7.81;53.12
71396;DHT22;59888;55.814;37.132;2024-03-25T09:32:09;7.72;54.37
71396;DHT22;59888;55.814;37.132;2024-03-25T09:34:35;7.73;53.87
71396;DHT22;59888;55.814;37.132;2024-03-25T09:37:01;7.83;54.43
71396;DHT22;59888;55.814;37.132;2024-03-25T09:39:27;7.98;54.14
71396;DHT22;59888;55.814;37.132;2024-03-25T09:41:55;8.24;54.11
71396;DHT22;59888;55.814;37.132;2024-03-25T09:44:24;8.26;53.49
71396;DHT22;59888;55.814;37.132;2024-03-25T09:46:51;8.33;54.38
71396;DHT22;59888;55.814;37.132;2024-03-25T09:49:19;8.50;53.88
71396;DHT22;59888;55.814;37.132;2024-03-25T09:51:46;8.50;52.21
71396;DHT22;59888;55.814;37.132;2024-03-25T09:54:15;8.42;53.26
71396;DHT22;59888;55.814;37.132;2024-03-25T09:56:42;8.66;53.63
71396;DHT22;59888;55.814;37.132;2024-03-25T09:59:09;8.74;51.68
71396;DHT22;59888;55.814;37.132;2024-03-25T10:01:35;8.56;50.02
71396;DHT22;59888;55.814;37.132;2024-03-25T10:04:01;8.49;52.63
71396;DHT22;59888;55.814;37.132;2024-03-25T10:06:27;8.70;53.01
71396;DHT22;59888;55.814;37.132;2024-03-25T10:08:53;9.03;52.82
71396;DHT22;59888;55.814;37.132;2024-03-25T10:11:20;9.33;52.65
71396;DHT22;59888;55.814;37.132;2024-03-25T10:13:47;9.54;52.56
71396;DHT22;59888;55.814;37.132;2024-03-25T10:16:14;9.60;51.86
71396;DHT22;59888;55.814;37.132;2024-03-25T10:18:40;9.60;51.65
71396;DHT22;59888;55.814;37.132;2024-03-25T10:21:10;9.59;49.70
71396;DHT22;59888;55.814;37.132;2024-03-25T10:23:36;9.57;51.55
71396;DHT22;59888;55.814;37.132;2024-03-25T10:26:06;9.44;51.11
71396;DHT22;59888;55.814;37.132;2024-03-25T10:28:32;9.38;49.51
71396;DHT22;59888;55.814;37.132;2024-03-25T10:31:04;9.30;51.02
71396;DHT22;59888;55.814;37.132;2024-03-25T10:33:31;9.36;51.20
71396;DHT22;59888;55.814;37.132;2024-03-25T10:35:59;9.42;51.53
71396;DHT22;59888;55.814;37.132;2024-03-25T10:38:26;9.46;50.84
71396;DHT22;59888;55.814;37.132;2024-03-25T10:40:54;9.50;50.64
71396;DHT22;59888;55.814;37.132;2024-03-25T10:43:21;9.57;51.14
71396;DHT22;59888;55.814;37.132;2024-03-25T10:45:49;9.62;51.17
71396;DHT22;59888;55.814;37.132;2024-03-25T10:48:53;9.77;51.14
71396;DHT22;59888;55.814;37.132;2024-03-25T10:51:21;9.78;50.14
71396;DHT22;59888;55.814;37.132;2024-03-25T10:53:51;9.92;50.89
71396;DHT22;59888;55.814;37.132;2024-03-25T10:56:21;10.15;49.21
71396;DHT22;59888;55.814;37.132;2024-03-25T10:58:50;10.14;50.33
71396;DHT22;59888;55.814;37.132;2024-03-25T11:01:17;10.33;50.51
71396;DHT22;59888;55.814;37.132;2024-03-25T11:03:45;10.41;50.64
71396;DHT22;59888;55.814;37.132;2024-03-25T11:06:13;10.43;49.64
71396;DHT22;59888;55.814;37.132;2024-03-25T11:08:39;10.75;50.08
71396;DHT22;59888;55.814;37.132;2024-03-25T11:11:07;11.14;49.66
71396;DHT22;59888;55.814;37.132;2024-03-25T11:13:34;11.56;49.10
71396;DHT22;59888;55.814;37.132;2024-03-25T11:16:00;11.91;48.90
71396;DHT22;59888;55.814;37.132;2024-03-25T11:18:27;12.20;48.31
71396;DHT22;59888;55.814;37.132;2024-03-25T11:21:06;12.51;46.90
71396;DHT22;59888;55.814;37.132;2024-03-25T11:23:51;12.34;45.33
71396;DHT22;59888;55.814;37.132;2024-03-25T11:26:19;12.13;45.74
71396;DHT22;59888;55.814;37.132;2024-03-25T11:28:46;11.88;46.12
71396;DHT22;59888;55.814;37.132;2024-03-25T11:31:12;11.98;46.61
71396;DHT22;59888;55.814;37.132;2024-03-25T11:33:39;12.05;47.18
71396;DHT22;59888;55.814;37.132;2024-03-25T11:36:05;12.16;45.96
71396;DHT22;59888;55.814;37.132;2024-03-25T11:38:32;12.05;45.13
71396;DHT22;59888;55.814;37.132;2024-03-25T11:40:58;11.87;46.76
71396;DHT22;59888;55.814;37.132;2024-03-25T11:43:24;11.51;46.38
71396;DHT22;59888;55.814;37.132;2024-03-25T11:45:51;11.63;47.08
71396;DHT22;59888;55.814;37.132;2024-03-25T11:48:19;11.73;46.94
71396;DHT22;59888;55.814;37.132;2024-03-25T11:50:46;11.87;46.96
71396;DHT22;59888;55.814;37.132;2024-03-25T11:53:17;11.82;46.55
71396;DHT22;59888;55.814;37.132;2024-03-25T11:55:47;11.53;46.27
71396;DHT22;59888;55.814;37.132;2024-03-25T11:58:14;11.32;46.84
71396;DHT22;59888;55.814;37.132;2024-03-25T12:00:48;11.32;46.87
71396;DHT22;59888;55.814;37.132;2024-03-25T12:03:15;11.08;46.73
71396;DHT22;59888;55.814;37.132;2024-03-25T12:05:44;11.10;47.16
71396;DHT22;59888;55.814;37.132;2024-03-25T12:08:11;11.27;47.36
71396;DHT22;59888;55.814;37.132;2024-03-25T12:10:38;11.45;46.89
71396;DHT22;59888;55.814;37.132;2024-03-25T12:13:24;11.57;46.93
71396;DHT22;59888;55.814;37.132;2024-03-25T12:15:51;11.66;46.69
71396;DHT22;59888;55.814;37.132;2024-03-25T12:18:18;11.39;46.41
71396;DHT22;59888;55.814;37.132;2024-03-25T12:20:48;11.52;46.70
71396;DHT22;59888;55.814;37.132;2024-03-25T12:23:14;11.56;45.29
71396;DHT22;59888;55.814;37.132;2024-03-25T12:25:41;11.39;47.13
71396;DHT22;59888;55.814;37.132;2024-03-25T12:28:10;11.41;46.80
71396;DHT22;59888;55.814;37.132;2024-03-25T12:30:53;11.55;46.06
71396;DHT22;59888;55.814;37.132;2024-03-25T12:33:20;11.54;46.18
71396;DHT22;59888;55.814;37.132;2024-03-25T12:35:49;11.43;45.08
71396;DHT22;59888;55.814;37.132;2024-03-25T12:38:30;11.70;46.28
71396;DHT22;59888;55.814;37.132;2024-03-25T12:41:09;12.43;43.39
71396;DHT22;59888;55.814;37.132;2024-03-25T12:43:42;14.57;42.74
71396;DHT22;59888;55.814;37.132;2024-03-25T12:46:10;0.00;0.00
71396;DHT22;59888;55.814;37.132;2024-03-25T12:48:38;0.00;0.00
71396;DHT22;59888;55.814;37.132;2024-03-25T12:51:13;0.00;0.00
71396;DHT22;59888;55.814;37.132;2024-03-25T12:53:39;0.00;0.00
71396;DHT22;59888;55.814;37.132;2024-03-25T12:56:06;0.00;0.00
71396;DHT22;59888;55.814;37.132;2024-03-25T12:58:32;0.00;0.00
71396;DHT22;59888;55.814;37.132;2024-03-25T13:00:58;0.00;0.00
71396;DHT22;59888;55.814;37.132;2024-03-25T13:03:24;0.00;0.00
71396;DHT22;59888;55.814;37.132;2024-03-25T13:05:51;0.00;0.00
71396;DHT22;59888;55.814;37.132;2024-03-25T13:08:16;0.00;0.00
71396;DHT22;59888;55.814;37.132;2024-03-25T13:10:43;0.00;0.00
71396;DHT22;59888;55.814;37.132;2024-03-25T13:13:09;0.00;0.00
71396;DHT22;59888;55.814;37.132;2024-03-25T13:15:35;0.00;0.00
71396;DHT22;59888;55.814;37.132;2024-03-25T13:18:01;0.00;0.00
71396;DHT22;59888;55.814;37.132;2024-03-25T13:20:28;0.00;0.00
71396;DHT22;59888;55.814;37.132;2024-03-25T13:22:54;0.00;0.00
71396;DHT22;59888;55.814;37.132;2024-03-25T13:25:28;0.00;0.00
71396;DHT22;59888;55.814;37.132;2024-03-25T13:27:54;0.00;0.00
71396;DHT22;59888;55.814;37.132;2024-03-25T13:30:20;0.00;0.00
71396;DHT22;59888;55.814;37.132;2024-03-25T13:32:46;0.00;0.00
71396;DHT22;59888;55.814;37.132;2024-03-25T13:35:12;0.00;0.00
71396;DHT22;59888;55.814;37.132;2024-03-25T13:37:38;0.00;0.00
71396;DHT22;59888;55.814;37.132;2024-03-25T13:40:05;0.00;0.00
71396;DHT22;59888;55.814;37.132;2024-03-25T13:42:32;0.00;0.00
71396;DHT22;59888;55.814;37.132;2024-03-25T13:44:58;0.00;0.00
71396;DHT22;59888;55.814;37.132;2024-03-25T13:47:24;0.00;0.00
71396;DHT22;59888;55.814;37.132;2024-03-25T13:50:09;0.00;0.00
71396;DHT22;59888;55.814;37.132;2024-03-25T13:52:35;0.00;0.00
71396;DHT22;59888;55.814;37.132;2024-03-25T13:55:02;0.00;0.00
71396;DHT22;59888;55.814;37.132;2024-03-25T13:57:31;0.00;0.00
71396;DHT22;59888;55.814;37.132;2024-03-25T13:59:57;0.00;0.00
71396;DHT22;59888;55.814;37.132;2024-03-25T14:02:23;0.00;0.00
71396;DHT22;59888;55.814;37.132;2024-03-25T14:04:50;0.00;0.00
71396;DHT22;59888;55.814;37.132;2024-03-25T14:07:16;0.00;0.00
71396;DHT22;59888;55.814;37.132;2024-03-25T14:09:43;0.00;0.00
71396;DHT22;59888;55.814;37.132;2024-03-25T14:12:09;0.00;0.00
71396;DHT22;59888;55.814;37.132;2024-03-25T14:14:36;0.00;0.00
71396;DHT22;59888;55.814;37.132;2024-03-25T14:17:02;0.00;0.00
71396;DHT22;59888;55.814;37.132;2024-03-25T14:19:28;0.00;0.00
71396;DHT22;59888;55.814;37.132;2024-03-25T14:21:54;0.00;0.00
71396;DHT22;59888;55.814;37.132;2024-03-25T14:24:20;0.00;0.00
71396;DHT22;59888;55.814;37.132;2024-03-25T14:26:46;0.00;0.00
71396;DHT22;59888;55.814;37.132;2024-03-25T14:29:12;0.00;0.00
71396;DHT22;59888;55.814;37.132;2024-03-25T14:31:39;0.00;0.00
71396;DHT22;59888;55.814;37.132;2024-03-25T14:34:05;0.00;0.00
71396;DHT22;59888;55.814;37.132;2024-03-25T14:36:31;0.00;0.00
71396;DHT22;59888;55.814;37.132;2024-03-25T14:38:58;0.00;0.00
71396;DHT22;59888;55.814;37.132;2024-03-25T14:41:24;0.00;0.00
71396;DHT22;59888;55.814;37.132;2024-03-25T14:43:51;0.00;0.00
71396;DHT22;59888;55.814;37.132;2024-03-25T14:46:17;0.00;0.00
71396;DHT22;59888;55.814;37.132;2024-03-25T14:48:44;0.00;0.00
71396;DHT22;59888;55.814;37.132;2024-03-25T14:51:10;0.00;0.00
71396;DHT22;59888;55.814;37.132;2024-03-25T14:53:38;0.00;0.00
71396;DHT22;59888;55.814;37.132;2024-03-25T14:56:04;0.00;0.00
71396;DHT22;59888;55.814;37.132;2024-03-25T14:58:31;0.00;0.00
71396;DHT22;59888;55.814;37.132;2024-03-25T15:00:57;0.00;0.00
71396;DHT22;59888;55.814;37.132;2024-03-25T15:03:24;0.00;0.00
71396;DHT22;59888;55.814;37.132;2024-03-25T15:05:50;0.00;0.00
71396;DHT22;59888;55.814;37.132;2024-03-25T15:08:16;0.00;0.00
71396;DHT22;59888;55.814;37.132;2024-03-25T15:10:42;0.00;0.00
71396;DHT22;59888;55.814;37.132;2024-03-25T15:13:14;0.00;0.00
71396;DHT22;59888;55.814;37.132;2024-03-25T15:15:40;0.00;0.00
71396;DHT22;59888;55.814;37.132;2024-03-25T15:18:09;0.00;21.57
71396;DHT22;59888;55.814;37.132;2024-03-25T15:20:35;24.91;22.34
71396;DHT22;59888;55.814;37.132;2024-03-25T15:23:01;23.67;23.02
71396;DHT22;59888;55.814;37.132;2024-03-25T15:25:29;22.43;23.66
71396;DHT22;59888;55.814;37.132;2024-03-25T15:27:55;21.53;24.28
71396;DHT22;59888;55.814;37.132;2024-03-25T15:30:21;20.68;24.71
71396;DHT22;59888;55.814;37.132;2024-03-25T15:32:47;19.88;25.21